sensor_id;sensor_type;location;lat;lon;timestamp;pressure;altitude;pressure_sealevel;temperature;humidity
49709;BME280;35601;55.902;13.606;2024-01-11T00:02:07;102089.12;;;-4.77;84.66
49709;BME280;35601;55.902;13.606;2024-01-11T00:04:32;102090.41;;;-4.84;84.78
49709;BME280;35601;55.902;13.606;2024-01-11T00:06:57;102077.91;;;-4.70;84.37
49709;BME280;35601;55.902;13.606;2024-01-11T00:09:23;102073.20;;;-4.67;84.10
49709;BME280;35601;55.902;13.606;2024-01-11T00:11:48;102070.31;;;-4.68;84.17
49709;BME280;35601;55.902;13.606;2024-01-11T00:14:14;102057.06;;;-4.58;83.93
49709;BME280;35601;55.902;13.606;2024-01-11T00:16:39;102038.11;;;-4.46;83.59
49709;BME280;35601;55.902;13.606;2024-01-11T00:19:04;102044.15;;;-4.70;83.53
49709;BME280;35601;55.902;13.606;2024-01-11T00:21:29;102063.77;;;-4.47;83.58
49709;BME280;35601;55.902;13.606;2024-01-11T00:23:55;102066.02;;;-4.56;83.92
49709;BME280;35601;55.902;13.606;2024-01-11T00:26:20;102054.52;;;-4.57;84.19
49709;BME280;35601;55.902;13.606;2024-01-11T00:28:46;102052.75;;;-4.72;84.33
49709;BME280;35601;55.902;13.606;2024-01-11T00:31:12;102049.17;;;-4.55;84.03
49709;BME280;35601;55.902;13.606;2024-01-11T00:33:39;102051.20;;;-4.57;83.93
49709;BME280;35601;55.902;13.606;2024-01-11T00:36:03;102046.12;;;-4.27;83.99
49709;BME280;35601;55.902;13.606;2024-01-11T00:38:27;102046.26;;;-4.72;84.10
49709;BME280;35601;55.902;13.606;2024-01-11T00:40:53;102039.61;;;-4.51;84.82
49709;BME280;35601;55.902;13.606;2024-01-11T00:43:18;102037.03;;;-4.30;85.54
49709;BME280;35601;55.902;13.606;2024-01-11T00:45:44;102028.85;;;-4.55;85.95
49709;BME280;35601;55.902;13.606;2024-01-11T00:48:09;102028.04;;;-4.43;86.70
49709;BME280;35601;55.902;13.606;2024-01-11T00:50:34;102045.49;;;-4.35;86.89
49709;BME280;35601;55.902;13.606;2024-01-11T00:52:59;102049.58;;;-4.33;87.08
49709;BME280;35601;55.902;13.606;2024-01-11T00:55:25;102064.88;;;-4.30;87.10
49709;BME280;35601;55.902;13.606;2024-01-11T00:57:51;102068.92;;;-4.22;87.15
49709;BME280;35601;55.902;13.606;2024-01-11T01:00:17;102064.40;;;-4.50;87.23
49709;BME280;35601;55.902;13.606;2024-01-11T01:02:43;102054.72;;;-4.25;87.32
49709;BME280;35601;55.902;13.606;2024-01-11T01:05:08;102047.97;;;-4.16;87.63
49709;BME280;35601;55.902;13.606;2024-01-11T01:07:34;102059.12;;;-4.32;88.16
49709;BME280;35601;55.902;13.606;2024-01-11T01:09:58;102060.62;;;-4.39;88.84
49709;BME280;35601;55.902;13.606;2024-01-11T01:12:24;102048.25;;;-4.45;89.50
49709;BME280;35601;55.902;13.606;2024-01-11T01:14:50;102045.43;;;-4.48;90.39
49709;BME280;35601;55.902;13.606;2024-01-11T01:17:15;102040.60;;;-4.32;89.99
49709;BME280;35601;55.902;13.606;2024-01-11T01:19:41;102044.79;;;-4.40;90.99
49709;BME280;35601;55.902;13.606;2024-01-11T01:22:06;102053.02;;;-4.54;91.38
49709;BME280;35601;55.902;13.606;2024-01-11T01:24:31;102059.20;;;-4.50;91.72
49709;BME280;35601;55.902;13.606;2024-01-11T01:26:58;102053.80;;;-4.52;92.14
49709;BME280;35601;55.902;13.606;2024-01-11T01:29:23;102050.85;;;-4.49;92.49
49709;BME280;35601;55.902;13.606;2024-01-11T01:31:48;102032.91;;;-4.33;92.10
49709;BME280;35601;55.902;13.606;2024-01-11T01:34:14;102023.32;;;-4.42;92.24
49709;BME280;35601;55.902;13.606;2024-01-11T01:36:40;102015.38;;;-4.36;92.64
49709;BME280;35601;55.902;13.606;2024-01-11T01:39:05;102003.55;;;-4.48;92.20
49709;BME280;35601;55.902;13.606;2024-01-11T01:41:31;101995.43;;;-4.45;92.34
49709;BME280;35601;55.902;13.606;2024-01-11T01:43:56;101999.25;;;-4.19;92.15
49709;BME280;35601;55.902;13.606;2024-01-11T01:46:23;102003.11;;;-4.31;93.13
49709;BME280;35601;55.902;13.606;2024-01-11T01:48:48;102009.08;;;-4.27;93.40
49709;BME280;35601;55.902;13.606;2024-01-11T01:51:13;102009.18;;;-4.25;93.47
49709;BME280;35601;55.902;13.606;2024-01-11T01:53:39;102015.45;;;-5.10;92.95
49709;BME280;35601;55.902;13.606;2024-01-11T01:56:06;102016.01;;;-4.28;92.26
49709;BME280;35601;55.902;13.606;2024-01-11T01:58:30;102009.17;;;-4.03;91.75
49709;BME280;35601;55.902;13.606;2024-01-11T02:00:55;102010.73;;;-4.11;92.41
49709;BME280;35601;55.902;13.606;2024-01-11T02:03:20;102001.45;;;-4.29;93.25
49709;BME280;35601;55.902;13.606;2024-01-11T02:05:46;101999.03;;;-4.34;94.28
49709;BME280;35601;55.902;13.606;2024-01-11T02:08:15;102005.49;;;-4.26;93.72
49709;BME280;35601;55.902;13.606;2024-01-11T02:10:37;102011.90;;;-4.33;93.82
49709;BME280;35601;55.902;13.606;2024-01-11T02:13:03;102022.12;;;-4.39;94.46
49709;BME280;35601;55.902;13.606;2024-01-11T02:15:28;102013.60;;;-4.31;94.65
49709;BME280;35601;55.902;13.606;2024-01-11T02:17:53;102005.89;;;-4.11;93.96
49709;BME280;35601;55.902;13.606;2024-01-11T02:20:19;102011.46;;;-4.57;94.20
49709;BME280;35601;55.902;13.606;2024-01-11T02:22:47;102023.50;;;-4.45;95.13
49709;BME280;35601;55.902;13.606;2024-01-11T02:25:09;102017.22;;;-4.25;95.32
49709;BME280;35601;55.902;13.606;2024-01-11T02:27:45;102016.34;;;-4.26;95.38
49709;BME280;35601;55.902;13.606;2024-01-11T02:30:00;102010.43;;;-4.16;94.49
49709;BME280;35601;55.902;13.606;2024-01-11T02:32:26;101997.93;;;-4.07;93.78
49709;BME280;35601;55.902;13.606;2024-01-11T02:34:52;101988.92;;;-4.03;93.84
49709;BME280;35601;55.902;13.606;2024-01-11T02:37:18;101987.47;;;-4.15;93.21
49709;BME280;35601;55.902;13.606;2024-01-11T02:39:42;101988.42;;;-4.29;92.78
49709;BME280;35601;55.902;13.606;2024-01-11T02:42:07;101990.62;;;-4.02;92.49
49709;BME280;35601;55.902;13.606;2024-01-11T02:44:33;101980.49;;;-4.18;92.16
49709;BME280;35601;55.902;13.606;2024-01-11T02:46:58;101986.74;;;-4.06;92.09
49709;BME280;35601;55.902;13.606;2024-01-11T02:49:24;101984.79;;;-3.93;92.29
49709;BME280;35601;55.902;13.606;2024-01-11T02:51:49;101977.51;;;-4.03;93.03
49709;BME280;35601;55.902;13.606;2024-01-11T02:54:15;101973.41;;;-3.86;92.99
49709;BME280;35601;55.902;13.606;2024-01-11T02:56:40;101966.02;;;-3.89;92.99
49709;BME280;35601;55.902;13.606;2024-01-11T02:59:05;101975.42;;;-3.89;92.66
49709;BME280;35601;55.902;13.606;2024-01-11T03:01:30;101970.57;;;-4.22;92.64
49709;BME280;35601;55.902;13.606;2024-01-11T03:03:56;101974.84;;;-4.16;91.98
49709;BME280;35601;55.902;13.606;2024-01-11T03:06:21;101973.64;;;-4.24;93.03
49709;BME280;35601;55.902;13.606;2024-01-11T03:08:46;101970.54;;;-3.98;93.67
49709;BME280;35601;55.902;13.606;2024-01-11T03:11:11;101977.91;;;-4.01;92.92
49709;BME280;35601;55.902;13.606;2024-01-11T03:13:37;101970.50;;;-3.96;92.76
49709;BME280;35601;55.902;13.606;2024-01-11T03:16:03;101961.15;;;-3.79;92.93
49709;BME280;35601;55.902;13.606;2024-01-11T03:18:27;101958.73;;;-4.13;92.38
49709;BME280;35601;55.902;13.606;2024-01-11T03:20:52;101953.59;;;-3.90;91.93
49709;BME280;35601;55.902;13.606;2024-01-11T03:23:18;101945.10;;;-4.08;92.04
49709;BME280;35601;55.902;13.606;2024-01-11T03:25:43;101951.46;;;-4.14;92.24
49709;BME280;35601;55.902;13.606;2024-01-11T03:28:08;101950.29;;;-3.99;91.86
49709;BME280;35601;55.902;13.606;2024-01-11T03:30:34;101949.01;;;-3.75;91.09
49709;BME280;35601;55.902;13.606;2024-01-11T03:32:59;101937.60;;;-3.77;90.80
49709;BME280;35601;55.902;13.606;2024-01-11T03:35:24;101949.37;;;-3.69;90.48
49709;BME280;35601;55.902;13.606;2024-01-11T03:37:49;101947.33;;;-3.87;90.34
49709;BME280;35601;55.902;13.606;2024-01-11T03:40:15;101943.02;;;-4.01;90.94
49709;BME280;35601;55.902;13.606;2024-01-11T03:42:41;101941.77;;;-3.74;91.25
49709;BME280;35601;55.902;13.606;2024-01-11T03:45:06;101936.86;;;-3.78;91.79
49709;BME280;35601;55.902;13.606;2024-01-11T03:47:30;101941.08;;;-3.73;91.65
49709;BME280;35601;55.902;13.606;2024-01-11T03:49:56;101942.79;;;-3.99;91.96
49709;BME280;35601;55.902;13.606;2024-01-11T03:52:21;101949.64;;;-3.98;92.39
49709;BME280;35601;55.902;13.606;2024-01-11T03:54:46;101961.17;;;-4.12;92.18
49709;BME280;35601;55.902;13.606;2024-01-11T03:57:12;101952.69;;;-4.28;93.07
49709;BME280;35601;55.902;13.606;2024-01-11T03:59:37;101946.29;;;-4.26;93.25
49709;BME280;35601;55.902;13.606;2024-01-11T04:02:03;101932.31;;;-4.25;93.01
49709;BME280;35601;55.902;13.606;2024-01-11T04:04:28;101925.51;;;-4.31;92.67
49709;BME280;35601;55.902;13.606;2024-01-11T04:06:53;101931.30;;;-4.18;91.99
49709;BME280;35601;55.902;13.606;2024-01-11T04:09:19;101928.05;;;-4.22;91.96
49709;BME280;35601;55.902;13.606;2024-01-11T04:11:44;101927.17;;;-4.42;92.07
49709;BME280;35601;55.902;13.606;2024-01-11T04:14:09;101932.18;;;-4.14;92.85
49709;BME280;35601;55.902;13.606;2024-01-11T04:16:40;101937.61;;;-4.18;92.74
49709;BME280;35601;55.902;13.606;2024-01-11T04:19:00;101937.59;;;-4.35;92.70
49709;BME280;35601;55.902;13.606;2024-01-11T04:21:26;101925.41;;;-4.23;92.36
49709;BME280;35601;55.902;13.606;2024-01-11T04:23:51;101921.78;;;-3.98;91.75
49709;BME280;35601;55.902;13.606;2024-01-11T04:26:16;101916.12;;;-4.10;91.22
49709;BME280;35601;55.902;13.606;2024-01-11T04:28:41;101912.19;;;-3.97;90.48
49709;BME280;35601;55.902;13.606;2024-01-11T04:31:08;101910.78;;;-4.13;89.92
49709;BME280;35601;55.902;13.606;2024-01-11T04:33:32;101920.09;;;-3.94;89.44
49709;BME280;35601;55.902;13.606;2024-01-11T04:35:58;101931.13;;;-3.79;89.37
49709;BME280;35601;55.902;13.606;2024-01-11T04:38:23;101936.16;;;-3.72;88.91
49709;BME280;35601;55.902;13.606;2024-01-11T04:40:48;101933.01;;;-4.13;89.39
49709;BME280;35601;55.902;13.606;2024-01-11T04:43:14;101929.15;;;-4.19;89.10
49709;BME280;35601;55.902;13.606;2024-01-11T04:45:40;101924.61;;;-3.79;88.53
49709;BME280;35601;55.902;13.606;2024-01-11T04:48:05;101923.37;;;-4.10;88.45
49709;BME280;35601;55.902;13.606;2024-01-11T04:50:31;101926.85;;;-4.10;88.46
49709;BME280;35601;55.902;13.606;2024-01-11T04:52:56;101928.65;;;-3.98;87.98
49709;BME280;35601;55.902;13.606;2024-01-11T04:55:21;101925.27;;;-4.27;87.88
49709;BME280;35601;55.902;13.606;2024-01-11T04:57:47;101927.79;;;-4.41;88.17
49709;BME280;35601;55.902;13.606;2024-01-11T05:00:13;101929.45;;;-4.23;88.15
49709;BME280;35601;55.902;13.606;2024-01-11T05:02:38;101935.39;;;-4.32;88.46
49709;BME280;35601;55.902;13.606;2024-01-11T05:05:04;101930.45;;;-4.28;88.50
49709;BME280;35601;55.902;13.606;2024-01-11T05:07:29;101925.58;;;-4.24;88.17
49709;BME280;35601;55.902;13.606;2024-01-11T05:09:54;101927.18;;;-4.27;87.86
49709;BME280;35601;55.902;13.606;2024-01-11T05:12:20;101926.19;;;-3.98;87.49
49709;BME280;35601;55.902;13.606;2024-01-11T05:14:45;101923.83;;;-3.90;86.67
49709;BME280;35601;55.902;13.606;2024-01-11T05:17:10;101924.56;;;-3.90;86.61
49709;BME280;35601;55.902;13.606;2024-01-11T05:19:36;101923.23;;;-4.03;86.03
49709;BME280;35601;55.902;13.606;2024-01-11T05:22:02;101922.22;;;-4.12;85.72
49709;BME280;35601;55.902;13.606;2024-01-11T05:24:27;101924.14;;;-4.01;85.47
49709;BME280;35601;55.902;13.606;2024-01-11T05:26:52;101921.75;;;-4.07;85.41
49709;BME280;35601;55.902;13.606;2024-01-11T05:29:18;101919.13;;;-4.11;85.19
49709;BME280;35601;55.902;13.606;2024-01-11T05:31:43;101924.78;;;-4.20;85.59
49709;BME280;35601;55.902;13.606;2024-01-11T05:34:08;101922.27;;;-4.41;85.90
49709;BME280;35601;55.902;13.606;2024-01-11T05:36:33;101921.89;;;-4.28;86.73
49709;BME280;35601;55.902;13.606;2024-01-11T05:38:58;101925.26;;;-4.43;86.30
49709;BME280;35601;55.902;13.606;2024-01-11T05:41:24;101923.01;;;-4.59;86.33
49709;BME280;35601;55.902;13.606;2024-01-11T05:43:49;101923.58;;;-4.37;85.42
49709;BME280;35601;55.902;13.606;2024-01-11T05:46:15;101929.05;;;-4.50;85.04
49709;BME280;35601;55.902;13.606;2024-01-11T05:48:40;101922.64;;;-4.12;85.34
49709;BME280;35601;55.902;13.606;2024-01-11T05:51:05;101917.72;;;-4.47;84.75
49709;BME280;35601;55.902;13.606;2024-01-11T05:53:31;101919.38;;;-4.16;84.95
49709;BME280;35601;55.902;13.606;2024-01-11T05:55:56;101923.26;;;-4.32;84.59
49709;BME280;35601;55.902;13.606;2024-01-11T05:58:21;101929.61;;;-4.36;84.38
49709;BME280;35601;55.902;13.606;2024-01-11T06:00:47;101928.67;;;-4.25;83.88
49709;BME280;35601;55.902;13.606;2024-01-11T06:03:12;101931.58;;;-4.40;83.72
49709;BME280;35601;55.902;13.606;2024-01-11T06:05:37;101936.32;;;-4.23;84.39
49709;BME280;35601;55.902;13.606;2024-01-11T06:08:03;101936.46;;;-4.50;84.19
49709;BME280;35601;55.902;13.606;2024-01-11T06:10:28;101939.09;;;-4.32;84.49
49709;BME280;35601;55.902;13.606;2024-01-11T06:12:53;101931.80;;;-4.39;84.45
49709;BME280;35601;55.902;13.606;2024-01-11T06:15:19;101927.24;;;-4.21;84.49
49709;BME280;35601;55.902;13.606;2024-01-11T06:17:44;101925.62;;;-4.73;84.74
49709;BME280;35601;55.902;13.606;2024-01-11T06:20:10;101928.94;;;-4.45;84.80
49709;BME280;35601;55.902;13.606;2024-01-11T06:22:34;101932.90;;;-4.50;84.68
49709;BME280;35601;55.902;13.606;2024-01-11T06:25:00;101928.09;;;-4.25;84.76
49709;BME280;35601;55.902;13.606;2024-01-11T06:27:25;101924.17;;;-4.66;85.30
49709;BME280;35601;55.902;13.606;2024-01-11T06:29:51;101927.01;;;-4.46;85.41
49709;BME280;35601;55.902;13.606;2024-01-11T06:32:16;101928.04;;;-4.81;85.56
49709;BME280;35601;55.902;13.606;2024-01-11T06:34:42;101930.80;;;-4.69;86.37
49709;BME280;35601;55.902;13.606;2024-01-11T06:37:07;101927.69;;;-4.42;85.88
49709;BME280;35601;55.902;13.606;2024-01-11T06:39:32;101925.70;;;-4.35;85.19
49709;BME280;35601;55.902;13.606;2024-01-11T06:41:57;101921.08;;;-4.66;84.81
49709;BME280;35601;55.902;13.606;2024-01-11T06:44:23;101924.94;;;-4.26;84.25
49709;BME280;35601;55.902;13.606;2024-01-11T06:46:48;101923.11;;;-4.34;83.28
49709;BME280;35601;55.902;13.606;2024-01-11T06:49:14;101925.22;;;-4.35;82.48
49709;BME280;35601;55.902;13.606;2024-01-11T06:51:39;101927.13;;;-4.44;82.15
49709;BME280;35601;55.902;13.606;2024-01-11T06:54:04;101919.27;;;-4.23;81.67
49709;BME280;35601;55.902;13.606;2024-01-11T06:56:29;101920.61;;;-3.95;81.03
49709;BME280;35601;55.902;13.606;2024-01-11T06:58:55;101920.95;;;-4.26;80.58
49709;BME280;35601;55.902;13.606;2024-01-11T07:01:20;101920.91;;;-4.08;80.67
49709;BME280;35601;55.902;13.606;2024-01-11T07:03:45;101915.83;;;-4.17;80.54
49709;BME280;35601;55.902;13.606;2024-01-11T07:06:10;101914.43;;;-4.58;80.74
49709;BME280;35601;55.902;13.606;2024-01-11T07:08:35;101916.50;;;-4.23;80.86
49709;BME280;35601;55.902;13.606;2024-01-11T07:11:01;101918.86;;;-4.42;80.12
49709;BME280;35601;55.902;13.606;2024-01-11T07:13:26;101924.87;;;-4.38;80.36
49709;BME280;35601;55.902;13.606;2024-01-11T07:15:51;101928.48;;;-4.37;80.17
49709;BME280;35601;55.902;13.606;2024-01-11T07:18:17;101930.34;;;-4.28;79.70
49709;BME280;35601;55.902;13.606;2024-01-11T07:20:42;101931.51;;;-4.52;79.79
49709;BME280;35601;55.902;13.606;2024-01-11T07:23:08;101935.35;;;-4.56;80.77
49709;BME280;35601;55.902;13.606;2024-01-11T07:25:33;101932.45;;;-4.11;80.48
49709;BME280;35601;55.902;13.606;2024-01-11T07:27:58;101933.71;;;-4.38;80.55
49709;BME280;35601;55.902;13.606;2024-01-11T07:30:24;101940.45;;;-4.47;80.46
49709;BME280;35601;55.902;13.606;2024-01-11T07:32:49;101935.50;;;-4.23;80.64
49709;BME280;35601;55.902;13.606;2024-01-11T07:35:14;101936.61;;;-4.46;80.12
49709;BME280;35601;55.902;13.606;2024-01-11T07:37:40;101940.55;;;-4.36;79.39
49709;BME280;35601;55.902;13.606;2024-01-11T07:40:06;101942.17;;;-4.29;78.65
49709;BME280;35601;55.902;13.606;2024-01-11T07:42:30;101946.00;;;-4.31;78.37
49709;BME280;35601;55.902;13.606;2024-01-11T07:44:56;101948.61;;;-4.21;77.87
49709;BME280;35601;55.902;13.606;2024-01-11T07:47:21;101947.87;;;-4.25;77.58
49709;BME280;35601;55.902;13.606;2024-01-11T07:49:47;101941.96;;;-4.31;76.56
49709;BME280;35601;55.902;13.606;2024-01-11T07:52:12;101934.87;;;-4.52;75.25
49709;BME280;35601;55.902;13.606;2024-01-11T07:54:38;101934.25;;;-4.69;75.68
49709;BME280;35601;55.902;13.606;2024-01-11T07:57:04;101935.67;;;-4.39;75.43
49709;BME280;35601;55.902;13.606;2024-01-11T07:59:32;101937.83;;;-4.40;75.23
49709;BME280;35601;55.902;13.606;2024-01-11T08:01:54;101932.60;;;-4.42;74.78
49709;BME280;35601;55.902;13.606;2024-01-11T08:04:19;101929.57;;;-4.42;74.60
49709;BME280;35601;55.902;13.606;2024-01-11T08:06:44;101931.50;;;-4.37;74.78
49709;BME280;35601;55.902;13.606;2024-01-11T08:09:09;101927.58;;;-4.34;74.46
49709;BME280;35601;55.902;13.606;2024-01-11T08:11:35;101931.20;;;-4.33;74.20
49709;BME280;35601;55.902;13.606;2024-01-11T08:14:01;101933.26;;;-4.46;74.01
49709;BME280;35601;55.902;13.606;2024-01-11T08:16:26;101932.22;;;-4.34;74.09
49709;BME280;35601;55.902;13.606;2024-01-11T08:18:52;101929.20;;;-4.66;73.81
49709;BME280;35601;55.902;13.606;2024-01-11T08:21:18;101933.88;;;-4.46;74.04
49709;BME280;35601;55.902;13.606;2024-01-11T08:23:43;101942.25;;;-4.44;73.93
49709;BME280;35601;55.902;13.606;2024-01-11T08:26:08;101940.42;;;-4.52;73.67
49709;BME280;35601;55.902;13.606;2024-01-11T08:28:34;101943.73;;;-4.54;74.00
49709;BME280;35601;55.902;13.606;2024-01-11T08:30:59;101948.50;;;-4.59;73.50
49709;BME280;35601;55.902;13.606;2024-01-11T08:33:25;101946.36;;;-4.77;73.48
49709;BME280;35601;55.902;13.606;2024-01-11T08:35:50;101952.23;;;-4.55;73.85
49709;BME280;35601;55.902;13.606;2024-01-11T08:38:16;101957.36;;;-4.46;73.88
49709;BME280;35601;55.902;13.606;2024-01-11T08:40:42;101960.11;;;-4.39;73.48
49709;BME280;35601;55.902;13.606;2024-01-11T08:43:07;101957.43;;;-4.54;73.89
49709;BME280;35601;55.902;13.606;2024-01-11T08:45:32;101947.88;;;-4.42;73.98
49709;BME280;35601;55.902;13.606;2024-01-11T08:47:58;101947.15;;;-4.35;73.85
49709;BME280;35601;55.902;13.606;2024-01-11T08:50:24;101952.42;;;-4.29;73.99
49709;BME280;35601;55.902;13.606;2024-01-11T08:52:50;101962.51;;;-4.44;73.98
49709;BME280;35601;55.902;13.606;2024-01-11T08:55:14;101967.30;;;-4.12;74.28
49709;BME280;35601;55.902;13.606;2024-01-11T08:57:40;101973.10;;;-4.21;74.67
49709;BME280;35601;55.902;13.606;2024-01-11T09:00:06;101976.74;;;-4.04;75.35
49709;BME280;35601;55.902;13.606;2024-01-11T09:02:31;101977.90;;;-3.96;75.34
49709;BME280;35601;55.902;13.606;2024-01-11T09:04:56;101979.99;;;-4.28;75.51
49709;BME280;35601;55.902;13.606;2024-01-11T09:07:22;101976.86;;;-4.05;75.52
49709;BME280;35601;55.902;13.606;2024-01-11T09:09:47;101980.57;;;-3.87;75.77
49709;BME280;35601;55.902;13.606;2024-01-11T09:12:13;101983.45;;;-3.98;76.11
49709;BME280;35601;55.902;13.606;2024-01-11T09:14:38;101983.47;;;-3.91;76.28
49709;BME280;35601;55.902;13.606;2024-01-11T09:17:03;101976.24;;;-3.68;76.44
49709;BME280;35601;55.902;13.606;2024-01-11T09:19:29;101974.13;;;-3.82;76.55
49709;BME280;35601;55.902;13.606;2024-01-11T09:21:54;101972.25;;;-4.15;76.66
49709;BME280;35601;55.902;13.606;2024-01-11T09:24:20;101971.96;;;-3.60;76.48
49709;BME280;35601;55.902;13.606;2024-01-11T09:26:45;101974.91;;;-3.64;77.36
49709;BME280;35601;55.902;13.606;2024-01-11T09:29:10;101980.67;;;-3.62;77.90
49709;BME280;35601;55.902;13.606;2024-01-11T09:31:35;101978.64;;;-4.12;77.80
49709;BME280;35601;55.902;13.606;2024-01-11T09:34:00;101979.19;;;-3.81;78.15
49709;BME280;35601;55.902;13.606;2024-01-11T09:36:26;101979.76;;;-3.57;77.90
49709;BME280;35601;55.902;13.606;2024-01-11T09:38:51;101980.75;;;-3.89;77.68
49709;BME280;35601;55.902;13.606;2024-01-11T09:41:16;101975.53;;;-3.59;77.90
49709;BME280;35601;55.902;13.606;2024-01-11T09:43:42;101972.69;;;-3.31;77.28
49709;BME280;35601;55.902;13.606;2024-01-11T09:46:07;101971.89;;;-3.48;77.38
49709;BME280;35601;55.902;13.606;2024-01-11T09:48:33;101970.01;;;-3.36;76.64
49709;BME280;35601;55.902;13.606;2024-01-11T09:50:58;101975.90;;;-3.09;77.06
49709;BME280;35601;55.902;13.606;2024-01-11T09:53:24;101977.08;;;-2.93;77.70
49709;BME280;35601;55.902;13.606;2024-01-11T09:55:49;101980.49;;;-3.34;77.16
49709;BME280;35601;55.902;13.606;2024-01-11T09:58:14;101980.77;;;-2.81;77.19
49709;BME280;35601;55.902;13.606;2024-01-11T10:00:40;101983.15;;;-3.11;77.47
49709;BME280;35601;55.902;13.606;2024-01-11T10:03:05;101990.59;;;-3.03;77.19
49709;BME280;35601;55.902;13.606;2024-01-11T10:05:30;101991.68;;;-2.81;76.53
49709;BME280;35601;55.902;13.606;2024-01-11T10:07:55;101991.19;;;-2.96;76.44
49709;BME280;35601;55.902;13.606;2024-01-11T10:10:21;101989.54;;;-2.66;76.34
49709;BME280;35601;55.902;13.606;2024-01-11T10:12:47;101980.91;;;-2.89;76.46
49709;BME280;35601;55.902;13.606;2024-01-11T10:15:12;101975.81;;;-2.76;76.58
49709;BME280;35601;55.902;13.606;2024-01-11T10:17:36;101977.56;;;-2.62;76.60
49709;BME280;35601;55.902;13.606;2024-01-11T10:20:01;101983.59;;;-2.44;76.17
49709;BME280;35601;55.902;13.606;2024-01-11T10:22:27;101980.09;;;-2.39;75.99
49709;BME280;35601;55.902;13.606;2024-01-11T10:25:07;101978.87;;;-2.02;75.22
49709;BME280;35601;55.902;13.606;2024-01-11T10:27:17;101981.44;;;-2.28;73.51
49709;BME280;35601;55.902;13.606;2024-01-11T10:29:43;101986.86;;;-2.25;74.07
49709;BME280;35601;55.902;13.606;2024-01-11T10:32:08;101987.55;;;-2.25;73.02
49709;BME280;35601;55.902;13.606;2024-01-11T10:34:33;101989.80;;;-1.95;73.30
49709;BME280;35601;55.902;13.606;2024-01-11T10:36:59;101989.61;;;-1.99;73.13
49709;BME280;35601;55.902;13.606;2024-01-11T10:39:25;101991.45;;;-1.71;72.50
49709;BME280;35601;55.902;13.606;2024-01-11T10:41:51;101985.23;;;-1.42;71.85
49709;BME280;35601;55.902;13.606;2024-01-11T10:44:18;101983.69;;;-1.83;71.63
49709;BME280;35601;55.902;13.606;2024-01-11T10:46:40;101980.62;;;-1.57;70.48
49709;BME280;35601;55.902;13.606;2024-01-11T10:49:05;101975.05;;;-1.21;71.05
49709;BME280;35601;55.902;13.606;2024-01-11T10:51:32;101974.86;;;-1.14;69.17
49709;BME280;35601;55.902;13.606;2024-01-11T10:53:56;101973.44;;;-1.43;69.20
49709;BME280;35601;55.902;13.606;2024-01-11T10:56:21;101974.55;;;-1.44;69.75
49709;BME280;35601;55.902;13.606;2024-01-11T10:58:47;101968.26;;;-1.45;70.55
49709;BME280;35601;55.902;13.606;2024-01-11T11:01:12;101953.25;;;-1.27;70.09
49709;BME280;35601;55.902;13.606;2024-01-11T11:03:37;101957.36;;;-1.31;70.39
49709;BME280;35601;55.902;13.606;2024-01-11T11:06:03;101970.41;;;-1.17;71.18
49709;BME280;35601;55.902;13.606;2024-01-11T11:08:27;101978.81;;;-1.06;70.79
49709;BME280;35601;55.902;13.606;2024-01-11T11:10:55;101986.76;;;-1.47;69.30
49709;BME280;35601;55.902;13.606;2024-01-11T11:13:18;101981.25;;;-1.26;70.51
49709;BME280;35601;55.902;13.606;2024-01-11T11:15:45;101978.79;;;-1.04;69.25
49709;BME280;35601;55.902;13.606;2024-01-11T11:18:08;101974.51;;;-1.49;69.27
49709;BME280;35601;55.902;13.606;2024-01-11T11:20:33;101981.54;;;-1.45;69.77
49709;BME280;35601;55.902;13.606;2024-01-11T11:23:04;101989.29;;;-1.34;69.41
49709;BME280;35601;55.902;13.606;2024-01-11T11:25:24;101987.07;;;-0.87;68.56
49709;BME280;35601;55.902;13.606;2024-01-11T11:27:49;101983.44;;;-1.35;69.20
49709;BME280;35601;55.902;13.606;2024-01-11T11:30:15;101977.56;;;-1.15;69.13
49709;BME280;35601;55.902;13.606;2024-01-11T11:32:44;101972.18;;;-0.68;69.04
49709;BME280;35601;55.902;13.606;2024-01-11T11:35:06;101973.06;;;-0.81;67.74
49709;BME280;35601;55.902;13.606;2024-01-11T11:37:31;101972.99;;;-1.09;68.87
49709;BME280;35601;55.902;13.606;2024-01-11T11:39:57;101973.13;;;-0.63;67.79
49709;BME280;35601;55.902;13.606;2024-01-11T11:42:22;101973.12;;;-0.91;67.93
49709;BME280;35601;55.902;13.606;2024-01-11T11:44:48;101975.04;;;-0.52;68.09
49709;BME280;35601;55.902;13.606;2024-01-11T11:47:19;101975.15;;;-0.09;67.61
49709;BME280;35601;55.902;13.606;2024-01-11T11:52:03;101978.51;;;-0.26;65.43
49709;BME280;35601;55.902;13.606;2024-01-11T11:54:28;101980.52;;;-0.24;65.25
49709;BME280;35601;55.902;13.606;2024-01-11T11:56:54;101984.54;;;0.16;65.30
49709;BME280;35601;55.902;13.606;2024-01-11T11:59:19;101985.38;;;0.25;64.66
49709;BME280;35601;55.902;13.606;2024-01-11T12:01:44;101980.41;;;0.19;64.37
49709;BME280;35601;55.902;13.606;2024-01-11T12:04:09;101975.99;;;-0.18;62.92
49709;BME280;35601;55.902;13.606;2024-01-11T12:06:35;101977.94;;;0.04;62.62
49709;BME280;35601;55.902;13.606;2024-01-11T12:09:01;101973.70;;;0.17;63.36
49709;BME280;35601;55.902;13.606;2024-01-11T12:11:26;101975.18;;;-0.42;64.88
49709;BME280;35601;55.902;13.606;2024-01-11T12:13:51;101971.13;;;-0.18;64.87
49709;BME280;35601;55.902;13.606;2024-01-11T12:16:17;101977.83;;;-0.31;65.03
49709;BME280;35601;55.902;13.606;2024-01-11T12:18:42;101976.38;;;-0.65;66.13
49709;BME280;35601;55.902;13.606;2024-01-11T12:21:08;101974.83;;;-0.48;67.28
49709;BME280;35601;55.902;13.606;2024-01-11T12:23:33;101979.22;;;-0.81;68.51
49709;BME280;35601;55.902;13.606;2024-01-11T12:25:58;101985.27;;;-1.01;69.18
49709;BME280;35601;55.902;13.606;2024-01-11T12:28:23;101987.43;;;-0.85;69.93
49709;BME280;35601;55.902;13.606;2024-01-11T12:30:49;101988.44;;;-1.31;70.78
49709;BME280;35601;55.902;13.606;2024-01-11T12:33:15;101986.86;;;-1.18;71.58